sensor_id;sensor_type;location;lat;lon;timestamp;P1;durP1;ratioP1;P2;durP2;ratioP2
19965;SDS011;10144;50.874;4.762;2022-11-12T00:01:14;16.57;;;8.90;;
19965;SDS011;10144;50.874;4.762;2022-11-12T00:03:39;17.03;;;9.00;;
19965;SDS011;10144;50.874;4.762;2022-11-12T00:06:05;17.60;;;8.97;;
19965;SDS011;10144;50.874;4.762;2022-11-12T00:08:32;19.53;;;9.13;;
19965;SDS011;10144;50.874;4.762;2022-11-12T00:11:01;18.47;;;9.07;;
19965;SDS011;10144;50.874;4.762;2022-11-12T00:16:00;15.90;;;8.27;;
19965;SDS011;10144;50.874;4.762;2022-11-12T00:18:26;19.10;;;7.60;;
19965;SDS011;10144;50.874;4.762;2022-11-12T00:20:55;16.60;;;8.47;;
19965;SDS011;10144;50.874;4.762;2022-11-12T00:23:24;18.07;;;8.43;;
19965;SDS011;10144;50.874;4.762;2022-11-12T00:25:59;19.07;;;8.00;;
19965;SDS011;10144;50.874;4.762;2022-11-12T00:28:27;15.77;;;7.80;;
19965;SDS011;10144;50.874;4.762;2022-11-12T00:30:54;15.93;;;8.17;;
19965;SDS011;10144;50.874;4.762;2022-11-12T00:33:20;17.57;;;8.30;;
19965;SDS011;10144;50.874;4.762;2022-11-12T00:35:57;15.37;;;7.60;;
19965;SDS011;10144;50.874;4.762;2022-11-12T00:41:01;14.77;;;8.17;;
19965;SDS011;10144;50.874;4.762;2022-11-12T00:43:29;14.23;;;7.53;;
19965;SDS011;10144;50.874;4.762;2022-11-12T00:45:57;18.87;;;7.27;;
19965;SDS011;10144;50.874;4.762;2022-11-12T00:48:23;14.20;;;7.20;;
19965;SDS011;10144;50.874;4.762;2022-11-12T00:51:01;15.00;;;7.67;;
19965;SDS011;10144;50.874;4.762;2022-11-12T00:53:31;18.87;;;7.70;;
19965;SDS011;10144;50.874;4.762;2022-11-12T00:56:05;15.00;;;7.53;;
19965;SDS011;10144;50.874;4.762;2022-11-12T00:58:46;14.73;;;7.63;;
19965;SDS011;10144;50.874;4.762;2022-11-12T01:01:15;13.33;;;7.27;;
19965;SDS011;10144;50.874;4.762;2022-11-12T01:03:42;15.90;;;7.13;;
19965;SDS011;10144;50.874;4.762;2022-11-12T01:06:12;14.40;;;7.07;;
19965;SDS011;10144;50.874;4.762;2022-11-12T01:08:41;13.97;;;7.00;;
19965;SDS011;10144;50.874;4.762;2022-11-12T01:11:15;16.40;;;7.07;;
19965;SDS011;10144;50.874;4.762;2022-11-12T01:13:43;13.53;;;6.70;;
19965;SDS011;10144;50.874;4.762;2022-11-12T01:16:12;12.20;;;7.07;;
19965;SDS011;10144;50.874;4.762;2022-11-12T01:18:43;12.77;;;6.80;;
19965;SDS011;10144;50.874;4.762;2022-11-12T01:21:09;12.57;;;6.73;;
19965;SDS011;10144;50.874;4.762;2022-11-12T01:23:36;13.83;;;6.80;;
19965;SDS011;10144;50.874;4.762;2022-11-12T01:26:05;13.80;;;6.97;;
19965;SDS011;10144;50.874;4.762;2022-11-12T01:28:37;15.67;;;6.80;;
19965;SDS011;10144;50.874;4.762;2022-11-12T01:33:48;14.23;;;7.20;;
19965;SDS011;10144;50.874;4.762;2022-11-12T01:38:48;13.97;;;7.20;;
19965;SDS011;10144;50.874;4.762;2022-11-12T01:41:22;17.97;;;7.73;;
19965;SDS011;10144;50.874;4.762;2022-11-12T01:44:09;16.40;;;8.30;;
19965;SDS011;10144;50.874;4.762;2022-11-12T01:52:24;21.73;;;10.73;;
19965;SDS011;10144;50.874;4.762;2022-11-12T01:55:24;22.20;;;11.20;;
19965;SDS011;10144;50.874;4.762;2022-11-12T01:58:13;23.30;;;11.40;;
19965;SDS011;10144;50.874;4.762;2022-11-12T02:00:42;23.03;;;11.47;;
19965;SDS011;10144;50.874;4.762;2022-11-12T02:05:44;24.43;;;11.03;;
19965;SDS011;10144;50.874;4.762;2022-11-12T02:08:12;23.63;;;10.53;;
19965;SDS011;10144;50.874;4.762;2022-11-12T02:10:44;21.23;;;10.10;;
19965;SDS011;10144;50.874;4.762;2022-11-12T02:13:12;20.80;;;9.93;;
19965;SDS011;10144;50.874;4.762;2022-11-12T02:16:03;21.37;;;10.27;;
19965;SDS011;10144;50.874;4.762;2022-11-12T02:18:45;19.57;;;9.33;;
19965;SDS011;10144;50.874;4.762;2022-11-12T02:21:10;19.10;;;9.53;;
19965;SDS011;10144;50.874;4.762;2022-11-12T02:23:36;23.83;;;10.10;;
19965;SDS011;10144;50.874;4.762;2022-11-12T02:26:08;19.90;;;9.57;;
19965;SDS011;10144;50.874;4.762;2022-11-12T02:28:38;21.10;;;10.80;;
19965;SDS011;10144;50.874;4.762;2022-11-12T02:31:07;21.30;;;9.23;;
19965;SDS011;10144;50.874;4.762;2022-11-12T02:33:38;20.83;;;9.60;;
19965;SDS011;10144;50.874;4.762;2022-11-12T02:36:07;24.37;;;10.37;;
19965;SDS011;10144;50.874;4.762;2022-11-12T02:38:33;20.30;;;9.60;;
19965;SDS011;10144;50.874;4.762;2022-11-12T02:40:59;21.30;;;10.10;;
19965;SDS011;10144;50.874;4.762;2022-11-12T02:43:27;18.40;;;9.00;;
19965;SDS011;10144;50.874;4.762;2022-11-12T02:45:56;17.90;;;8.70;;
19965;SDS011;10144;50.874;4.762;2022-11-12T02:48:23;15.60;;;8.10;;
19965;SDS011;10144;50.874;4.762;2022-11-12T02:50:55;20.07;;;9.10;;
19965;SDS011;10144;50.874;4.762;2022-11-12T02:53:20;22.60;;;10.50;;
19965;SDS011;10144;50.874;4.762;2022-11-12T02:58:18;22.33;;;10.53;;
19965;SDS011;10144;50.874;4.762;2022-11-12T03:00:46;24.67;;;10.90;;
19965;SDS011;10144;50.874;4.762;2022-11-12T03:03:13;21.63;;;10.17;;
19965;SDS011;10144;50.874;4.762;2022-11-12T03:08:29;21.03;;;9.63;;
19965;SDS011;10144;50.874;4.762;2022-11-12T03:10:54;24.43;;;10.50;;
19965;SDS011;10144;50.874;4.762;2022-11-12T03:13:23;21.60;;;9.53;;
19965;SDS011;10144;50.874;4.762;2022-11-12T03:15:57;23.00;;;10.30;;
19965;SDS011;10144;50.874;4.762;2022-11-12T03:18:25;21.33;;;9.20;;
19965;SDS011;10144;50.874;4.762;2022-11-12T03:20:53;16.57;;;7.93;;
19965;SDS011;10144;50.874;4.762;2022-11-12T03:23:19;19.20;;;8.93;;
19965;SDS011;10144;50.874;4.762;2022-11-12T03:25:46;20.83;;;9.40;;
19965;SDS011;10144;50.874;4.762;2022-11-12T03:28:13;19.47;;;9.40;;
19965;SDS011;10144;50.874;4.762;2022-11-12T03:30:42;21.60;;;9.37;;
19965;SDS011;10144;50.874;4.762;2022-11-12T03:33:09;19.30;;;9.03;;
19965;SDS011;10144;50.874;4.762;2022-11-12T03:35:36;23.50;;;9.43;;
19965;SDS011;10144;50.874;4.762;2022-11-12T03:38:02;20.60;;;9.77;;
19965;SDS011;10144;50.874;4.762;2022-11-12T03:40:30;25.13;;;10.53;;
19965;SDS011;10144;50.874;4.762;2022-11-12T03:42:58;22.07;;;10.03;;
19965;SDS011;10144;50.874;4.762;2022-11-12T03:45:25;19.87;;;8.87;;
19965;SDS011;10144;50.874;4.762;2022-11-12T03:47:55;16.90;;;8.50;;
19965;SDS011;10144;50.874;4.762;2022-11-12T03:50:23;16.43;;;7.10;;
19965;SDS011;10144;50.874;4.762;2022-11-12T03:52:55;19.70;;;8.37;;
19965;SDS011;10144;50.874;4.762;2022-11-12T03:57:52;14.90;;;7.07;;
19965;SDS011;10144;50.874;4.762;2022-11-12T04:02:51;17.77;;;7.23;;
19965;SDS011;10144;50.874;4.762;2022-11-12T04:05:26;16.97;;;8.00;;
19965;SDS011;10144;50.874;4.762;2022-11-12T04:08:16;14.47;;;6.73;;
19965;SDS011;10144;50.874;4.762;2022-11-12T04:11:03;15.30;;;6.77;;
19965;SDS011;10144;50.874;4.762;2022-11-12T04:13:32;14.60;;;7.20;;
19965;SDS011;10144;50.874;4.762;2022-11-12T04:16:05;13.63;;;7.00;;
19965;SDS011;10144;50.874;4.762;2022-11-12T04:18:57;14.90;;;7.23;;
19965;SDS011;10144;50.874;4.762;2022-11-12T04:21:51;16.43;;;7.73;;
19965;SDS011;10144;50.874;4.762;2022-11-12T04:24:33;17.30;;;8.37;;
19965;SDS011;10144;50.874;4.762;2022-11-12T04:27:25;16.10;;;7.57;;
19965;SDS011;10144;50.874;4.762;2022-11-12T04:29:59;17.57;;;8.03;;
19965;SDS011;10144;50.874;4.762;2022-11-12T04:32:51;19.20;;;9.20;;
19965;SDS011;10144;50.874;4.762;2022-11-12T04:35:35;20.03;;;9.43;;
19965;SDS011;10144;50.874;4.762;2022-11-12T04:40:36;22.30;;;9.97;;
19965;SDS011;10144;50.874;4.762;2022-11-12T04:43:20;18.37;;;8.83;;
19965;SDS011;10144;50.874;4.762;2022-11-12T04:46:05;20.43;;;8.03;;
19965;SDS011;10144;50.874;4.762;2022-11-12T04:51:01;14.33;;;7.13;;
19965;SDS011;10144;50.874;4.762;2022-11-12T04:54:04;18.50;;;8.20;;
19965;SDS011;10144;50.874;4.762;2022-11-12T04:56:32;14.83;;;7.40;;
19965;SDS011;10144;50.874;4.762;2022-11-12T04:59:00;16.60;;;7.30;;
19965;SDS011;10144;50.874;4.762;2022-11-12T05:01:26;14.60;;;7.23;;
19965;SDS011;10144;50.874;4.762;2022-11-12T05:03:53;18.10;;;8.20;;
19965;SDS011;10144;50.874;4.762;2022-11-12T05:06:18;16.10;;;7.33;;
19965;SDS011;10144;50.874;4.762;2022-11-12T05:09:02;17.00;;;8.03;;
19965;SDS011;10144;50.874;4.762;2022-11-12T05:11:28;16.63;;;8.23;;
19965;SDS011;10144;50.874;4.762;2022-11-12T05:16:24;18.40;;;7.60;;
19965;SDS011;10144;50.874;4.762;2022-11-12T05:18:52;16.03;;;7.30;;
19965;SDS011;10144;50.874;4.762;2022-11-12T05:21:20;15.07;;;7.40;;
19965;SDS011;10144;50.874;4.762;2022-11-12T05:24:05;14.30;;;6.93;;
19965;SDS011;10144;50.874;4.762;2022-11-12T05:26:37;14.30;;;6.87;;
19965;SDS011;10144;50.874;4.762;2022-11-12T05:29:05;14.73;;;6.20;;
19965;SDS011;10144;50.874;4.762;2022-11-12T05:31:34;12.03;;;6.30;;
19965;SDS011;10144;50.874;4.762;2022-11-12T05:34:00;10.17;;;5.73;;
19965;SDS011;10144;50.874;4.762;2022-11-12T05:38:54;14.00;;;6.13;;
19965;SDS011;10144;50.874;4.762;2022-11-12T05:41:26;13.70;;;6.07;;
19965;SDS011;10144;50.874;4.762;2022-11-12T05:43:55;12.70;;;6.00;;
19965;SDS011;10144;50.874;4.762;2022-11-12T05:46:24;15.10;;;5.87;;
19965;SDS011;10144;50.874;4.762;2022-11-12T05:48:50;9.80;;;5.30;;
19965;SDS011;10144;50.874;4.762;2022-11-12T05:51:25;14.10;;;6.23;;
19965;SDS011;10144;50.874;4.762;2022-11-12T05:56:23;12.20;;;5.93;;
19965;SDS011;10144;50.874;4.762;2022-11-12T05:58:50;12.43;;;6.20;;
19965;SDS011;10144;50.874;4.762;2022-11-12T06:01:18;15.50;;;5.87;;
19965;SDS011;10144;50.874;4.762;2022-11-12T06:03:44;15.90;;;6.53;;
19965;SDS011;10144;50.874;4.762;2022-11-12T06:06:16;11.30;;;5.50;;
19965;SDS011;10144;50.874;4.762;2022-11-12T06:08:42;17.60;;;6.07;;
19965;SDS011;10144;50.874;4.762;2022-11-12T06:11:11;12.27;;;5.60;;
19965;SDS011;10144;50.874;4.762;2022-11-12T06:16:06;11.87;;;5.73;;
19965;SDS011;10144;50.874;4.762;2022-11-12T06:18:34;11.27;;;6.10;;
19965;SDS011;10144;50.874;4.762;2022-11-12T06:21:05;12.13;;;6.30;;
19965;SDS011;10144;50.874;4.762;2022-11-12T06:23:47;10.90;;;5.10;;
19965;SDS011;10144;50.874;4.762;2022-11-12T06:29:02;14.17;;;6.53;;
19965;SDS011;10144;50.874;4.762;2022-11-12T06:31:29;11.90;;;5.57;;
19965;SDS011;10144;50.874;4.762;2022-11-12T06:33:55;11.57;;;6.20;;
19965;SDS011;10144;50.874;4.762;2022-11-12T06:38:49;11.93;;;5.47;;
19965;SDS011;10144;50.874;4.762;2022-11-12T06:43:47;9.60;;;5.10;;
19965;SDS011;10144;50.874;4.762;2022-11-12T06:46:24;10.67;;;5.00;;
19965;SDS011;10144;50.874;4.762;2022-11-12T06:48:50;10.83;;;5.63;;
19965;SDS011;10144;50.874;4.762;2022-11-12T06:51:19;10.87;;;5.23;;
19965;SDS011;10144;50.874;4.762;2022-11-12T06:53:54;11.03;;;5.07;;
19965;SDS011;10144;50.874;4.762;2022-11-12T06:56:26;9.83;;;4.60;;
19965;SDS011;10144;50.874;4.762;2022-11-12T06:58:54;10.43;;;4.80;;
19965;SDS011;10144;50.874;4.762;2022-11-12T07:01:23;10.23;;;4.90;;
19965;SDS011;10144;50.874;4.762;2022-11-12T07:03:51;8.93;;;4.53;;
19965;SDS011;10144;50.874;4.762;2022-11-12T07:06:18;10.13;;;5.10;;
19965;SDS011;10144;50.874;4.762;2022-11-12T07:08:48;13.30;;;6.20;;
19965;SDS011;10144;50.874;4.762;2022-11-12T07:11:17;11.70;;;5.40;;
19965;SDS011;10144;50.874;4.762;2022-11-12T07:13:45;9.77;;;5.20;;
19965;SDS011;10144;50.874;4.762;2022-11-12T07:16:12;11.57;;;5.67;;
19965;SDS011;10144;50.874;4.762;2022-11-12T07:18:44;9.73;;;5.13;;
19965;SDS011;10144;50.874;4.762;2022-11-12T07:21:12;10.73;;;4.77;;
19965;SDS011;10144;50.874;4.762;2022-11-12T07:23:42;10.90;;;5.10;;
19965;SDS011;10144;50.874;4.762;2022-11-12T07:26:19;10.50;;;4.90;;
19965;SDS011;10144;50.874;4.762;2022-11-12T07:28:54;10.77;;;5.30;;
19965;SDS011;10144;50.874;4.762;2022-11-12T07:31:20;11.97;;;5.77;;
19965;SDS011;10144;50.874;4.762;2022-11-12T07:33:46;13.23;;;5.53;;
19965;SDS011;10144;50.874;4.762;2022-11-12T07:36:17;10.90;;;5.43;;
19965;SDS011;10144;50.874;4.762;2022-11-12T07:38:45;11.97;;;5.33;;
19965;SDS011;10144;50.874;4.762;2022-11-12T07:41:18;14.77;;;6.43;;
19965;SDS011;10144;50.874;4.762;2022-11-12T07:43:49;10.13;;;5.57;;
19965;SDS011;10144;50.874;4.762;2022-11-12T07:46:17;10.10;;;5.27;;
19965;SDS011;10144;50.874;4.762;2022-11-12T07:48:45;12.30;;;5.77;;
19965;SDS011;10144;50.874;4.762;2022-11-12T07:51:18;10.57;;;5.30;;
19965;SDS011;10144;50.874;4.762;2022-11-12T07:53:45;11.83;;;5.63;;
19965;SDS011;10144;50.874;4.762;2022-11-12T07:56:13;9.53;;;5.00;;
19965;SDS011;10144;50.874;4.762;2022-11-12T07:58:40;10.73;;;4.82;;
19965;SDS011;10144;50.874;4.762;2022-11-12T08:01:13;9.07;;;4.60;;
19965;SDS011;10144;50.874;4.762;2022-11-12T08:03:55;9.10;;;4.72;;
19965;SDS011;10144;50.874;4.762;2022-11-12T08:06:21;8.02;;;4.53;;
19965;SDS011;10144;50.874;4.762;2022-11-12T08:08:50;10.75;;;5.40;;
19965;SDS011;10144;50.874;4.762;2022-11-12T08:11:16;8.13;;;4.75;;
19965;SDS011;10144;50.874;4.762;2022-11-12T08:13:42;9.43;;;4.75;;
19965;SDS011;10144;50.874;4.762;2022-11-12T08:16:08;9.15;;;4.55;;
19965;SDS011;10144;50.874;4.762;2022-11-12T08:18:33;8.95;;;4.90;;
19965;SDS011;10144;50.874;4.762;2022-11-12T08:20:59;10.90;;;5.18;;
19965;SDS011;10144;50.874;4.762;2022-11-12T08:23:29;10.00;;;5.32;;
19965;SDS011;10144;50.874;4.762;2022-11-12T08:25:58;9.70;;;5.28;;
19965;SDS011;10144;50.874;4.762;2022-11-12T08:28:25;9.00;;;4.90;;
19965;SDS011;10144;50.874;4.762;2022-11-12T08:30:52;7.82;;;4.70;;
19965;SDS011;10144;50.874;4.762;2022-11-12T08:33:17;8.35;;;5.10;;
19965;SDS011;10144;50.874;4.762;2022-11-12T08:35:43;11.52;;;5.68;;
19965;SDS011;10144;50.874;4.762;2022-11-12T08:38:09;13.80;;;5.97;;
19965;SDS011;10144;50.874;4.762;2022-11-12T08:40:35;11.15;;;5.82;;
19965;SDS011;10144;50.874;4.762;2022-11-12T08:43:02;10.15;;;5.53;;
19965;SDS011;10144;50.874;4.762;2022-11-12T08:45:36;10.27;;;5.78;;
19965;SDS011;10144;50.874;4.762;2022-11-12T08:48:10;10.23;;;5.50;;
19965;SDS011;10144;50.874;4.762;2022-11-12T08:50:40;12.43;;;5.68;;
19965;SDS011;10144;50.874;4.762;2022-11-12T08:53:07;7.25;;;4.95;;
19965;SDS011;10144;50.874;4.762;2022-11-12T08:55:35;13.32;;;5.55;;
19965;SDS011;10144;50.874;4.762;2022-11-12T08:58:01;9.85;;;6.30;;
19965;SDS011;10144;50.874;4.762;2022-11-12T09:00:35;8.55;;;5.45;;
19965;SDS011;10144;50.874;4.762;2022-11-12T09:03:06;9.30;;;5.38;;
19965;SDS011;10144;50.874;4.762;2022-11-12T09:05:37;11.25;;;5.22;;
19965;SDS011;10144;50.874;4.762;2022-11-12T09:08:03;8.23;;;5.20;;
19965;SDS011;10144;50.874;4.762;2022-11-12T09:10:37;7.00;;;4.70;;
19965;SDS011;10144;50.874;4.762;2022-11-12T09:13:03;6.63;;;4.05;;
19965;SDS011;10144;50.874;4.762;2022-11-12T09:15:29;7.32;;;4.57;;
19965;SDS011;10144;50.874;4.762;2022-11-12T09:17:56;7.15;;;4.60;;
19965;SDS011;10144;50.874;4.762;2022-11-12T09:20:23;7.90;;;3.72;;
19965;SDS011;10144;50.874;4.762;2022-11-12T09:22:49;7.47;;;4.60;;
19965;SDS011;10144;50.874;4.762;2022-11-12T09:25:15;7.60;;;4.35;;
19965;SDS011;10144;50.874;4.762;2022-11-12T09:27:41;7.10;;;4.20;;
19965;SDS011;10144;50.874;4.762;2022-11-12T09:30:08;7.18;;;3.60;;
19965;SDS011;10144;50.874;4.762;2022-11-12T09:32:33;4.97;;;3.47;;
19965;SDS011;10144;50.874;4.762;2022-11-12T09:35:00;8.20;;;3.67;;
19965;SDS011;10144;50.874;4.762;2022-11-12T09:37:26;8.07;;;3.60;;
19965;SDS011;10144;50.874;4.762;2022-11-12T09:39:51;5.05;;;3.50;;
19965;SDS011;10144;50.874;4.762;2022-11-12T09:42:18;5.85;;;3.35;;
19965;SDS011;10144;50.874;4.762;2022-11-12T09:44:49;6.68;;;3.97;;
19965;SDS011;10144;50.874;4.762;2022-11-12T09:47:40;7.57;;;3.40;;
19965;SDS011;10144;50.874;4.762;2022-11-12T09:52:44;8.05;;;3.75;;
19965;SDS011;10144;50.874;4.762;2022-11-12T09:55:27;7.97;;;4.30;;
19965;SDS011;10144;50.874;4.762;2022-11-12T09:58:09;10.10;;;4.53;;
19965;SDS011;10144;50.874;4.762;2022-11-12T10:00:39;9.02;;;4.55;;
19965;SDS011;10144;50.874;4.762;2022-11-12T10:06:25;6.63;;;4.50;;
19965;SDS011;10144;50.874;4.762;2022-11-12T10:09:30;6.88;;;4.55;;
19965;SDS011;10144;50.874;4.762;2022-11-12T10:18:31;9.77;;;4.72;;
19965;SDS011;10144;50.874;4.762;2022-11-12T10:21:35;7.45;;;5.28;;
19965;SDS011;10144;50.874;4.762;2022-11-12T10:24:06;8.25;;;4.75;;
19965;SDS011;10144;50.874;4.762;2022-11-12T10:26:34;8.82;;;5.05;;
19965;SDS011;10144;50.874;4.762;2022-11-12T10:31:38;7.22;;;4.75;;
19965;SDS011;10144;50.874;4.762;2022-11-12T10:34:10;7.85;;;4.88;;
19965;SDS011;10144;50.874;4.762;2022-11-12T10:36:41;8.82;;;4.70;;
19965;SDS011;10144;50.874;4.762;2022-11-12T10:39:22;6.50;;;4.32;;
19965;SDS011;10144;50.874;4.762;2022-11-12T10:42:17;6.22;;;4.20;;
19965;SDS011;10144;50.874;4.762;2022-11-12T10:44:45;8.30;;;4.57;;
19965;SDS011;10144;50.874;4.762;2022-11-12T10:47:29;5.35;;;4.05;;
19965;SDS011;10144;50.874;4.762;2022-11-12T10:50:04;8.98;;;4.43;;
19965;SDS011;10144;50.874;4.762;2022-11-12T10:52:34;7.32;;;3.85;;
19965;SDS011;10144;50.874;4.762;2022-11-12T10:57:29;6.22;;;4.22;;
19965;SDS011;10144;50.874;4.762;2022-11-12T11:02:52;6.78;;;3.97;;
19965;SDS011;10144;50.874;4.762;2022-11-12T11:05:28;7.07;;;4.47;;
19965;SDS011;10144;50.874;4.762;2022-11-12T11:07:56;7.50;;;4.47;;
19965;SDS011;10144;50.874;4.762;2022-11-12T11:10:30;7.13;;;4.20;;
19965;SDS011;10144;50.874;4.762;2022-11-12T11:15:57;5.88;;;4.25;;
19965;SDS011;10144;50.874;4.762;2022-11-12T11:18:29;5.30;;;3.55;;
19965;SDS011;10144;50.874;4.762;2022-11-12T11:23:55;6.03;;;3.42;;
19965;SDS011;10144;50.874;4.762;2022-11-12T11:37:31;5.10;;;3.05;;
19965;SDS011;10144;50.874;4.762;2022-11-12T11:40:28;6.30;;;3.65;;
19965;SDS011;10144;50.874;4.762;2022-11-12T11:43:20;5.15;;;3.20;;
19965;SDS011;10144;50.874;4.762;2022-11-12T11:46:04;5.60;;;3.33;;
19965;SDS011;10144;50.874;4.762;2022-11-12T11:57:19;6.97;;;3.50;;
19965;SDS011;10144;50.874;4.762;2022-11-12T11:59:54;6.20;;;3.78;;
19965;SDS011;10144;50.874;4.762;2022-11-12T12:10:39;4.72;;;2.60;;
19965;SDS011;10144;50.874;4.762;2022-11-12T12:13:23;5.03;;;3.42;;
19965;SDS011;10144;50.874;4.762;2022-11-12T12:15:58;6.18;;;3.13;;
19965;SDS011;10144;50.874;4.762;2022-11-12T12:23:48;3.22;;;2.28;;
19965;SDS011;10144;50.874;4.762;2022-11-12T12:26:27;8.13;;;2.10;;
19965;SDS011;10144;50.874;4.762;2022-11-12T12:31:50;3.85;;;1.95;;
19965;SDS011;10144;50.874;4.762;2022-11-12T12:34:30;3.60;;;2.10;;
19965;SDS011;10144;50.874;4.762;2022-11-12T12:37:01;3.08;;;1.95;;
19965;SDS011;10144;50.874;4.762;2022-11-12T12:39:46;3.13;;;2.22;;
19965;SDS011;10144;50.874;4.762;2022-11-12T12:42:18;3.22;;;2.28;;
19965;SDS011;10144;50.874;4.762;2022-11-12T12:44:52;3.58;;;2.17;;
19965;SDS011;10144;50.874;4.762;2022-11-12T12:47:39;3.85;;;2.20;;
19965;SDS011;10144;50.874;4.762;2022-11-12T12:50:12;5.38;;;2.38;;
19965;SDS011;10144;50.874;4.762;2022-11-12T12:55:40;3.45;;;2.10;;
19965;SDS011;10144;50.874;4.762;2022-11-12T13:04:05;4.75;;;2.25;;
19965;SDS011;10144;50.874;4.762;2022-11-12T13:06:39;5.18;;;2.70;;
19965;SDS011;10144;50.874;4.762;2022-11-12T13:17:02;3.63;;;2.38;;
19965;SDS011;10144;50.874;4.762;2022-11-12T13:40:13;3.25;;;2.22;;
19965;SDS011;10144;50.874;4.762;2022-11-12T13:42:46;4.20;;;2.60;;
19965;SDS011;10144;50.874;4.762;2022-11-12T13:45:12;4.78;;;2.60;;
19965;SDS011;10144;50.874;4.762;2022-11-12T13:47:39;4.50;;;2.72;;
19965;SDS011;10144;50.874;4.762;2022-11-12T13:50:06;5.38;;;2.78;;
19965;SDS011;10144;50.874;4.762;2022-11-12T13:52:37;6.72;;;2.90;;
19965;SDS011;10144;50.874;4.762;2022-11-12T13:55:05;5.80;;;2.90;;
19965;SDS011;10144;50.874;4.762;2022-11-12T13:57:38;4.53;;;2.90;;
19965;SDS011;10144;50.874;4.762;2022-11-12T14:00:26;5.55;;;2.80;;
19965;SDS011;10144;50.874;4.762;2022-11-12T14:02:51;5.10;;;2.55;;
19965;SDS011;10144;50.874;4.762;2022-11-12T14:05:24;5.78;;;2.20;;
19965;SDS011;10144;50.874;4.762;2022-11-12T14:08:35;4.00;;;2.20;;
19965;SDS011;10144;50.874;4.762;2022-11-12T14:13:48;5.85;;;2.13;;
19965;SDS011;10144;50.874;4.762;2022-11-12T14:19:52;4.60;;;2.55;;
19965;SDS011;10144;50.874;4.762;2022-11-12T14:22:27;5.43;;;2.95;;
19965;SDS011;10144;50.874;4.762;2022-11-12T14:25:09;4.57;;;2.47;;
19965;SDS011;10144;50.874;4.762;2022-11-12T14:27:37;4.43;;;2.20;;
19965;SDS011;10144;50.874;4.762;2022-11-12T14:30:03;6.03;;;2.35;;
19965;SDS011;10144;50.874;4.762;2022-11-12T14:32:40;4.60;;;2.38;;
19965;SDS011;10144;50.874;4.762;2022-11-12T14:40:44;4.63;;;2.35;;
19965;SDS011;10144;50.874;4.762;2022-11-12T14:48:51;5.30;;;2.40;;
19965;SDS011;10144;50.874;4.762;2022-11-12T14:51:20;5.45;;;2.22;;
19965;SDS011;10144;50.874;4.762;2022-11-12T14:53:53;5.32;;;2.30;;
19965;SDS011;10144;50.874;4.762;2022-11-12T14:56:30;5.85;;;2.55;;
19965;SDS011;10144;50.874;4.762;2022-11-12T14:59:03;4.97;;;2.60;;
19965;SDS011;10144;50.874;4.762;2022-11-12T15:01:33;7.30;;;3.00;;
19965;SDS011;10144;50.874;4.762;2022-11-12T15:04:19;6.70;;;5.10;;
19965;SDS011;10144;50.874;4.762;2022-11-12T15:06:53;6.00;;;3.95;;
19965;SDS011;10144;50.874;4.762;2022-11-12T15:09:33;7.38;;;3.15;;
19965;SDS011;10144;50.874;4.762;2022-11-12T15:12:07;3.63;;;2.60;;
19965;SDS011;10144;50.874;4.762;2022-11-12T15:14:43;6.47;;;2.70;;
19965;SDS011;10144;50.874;4.762;2022-11-12T15:19:59;5.05;;;2.50;;
19965;SDS011;10144;50.874;4.762;2022-11-12T15:22:26;4.35;;;2.42;;
19965;SDS011;10144;50.874;4.762;2022-11-12T15:24:52;5.82;;;2.40;;
19965;SDS011;10144;50.874;4.762;2022-11-12T15:27:37;4.70;;;2.60;;
19965;SDS011;10144;50.874;4.762;2022-11-12T15:32:47;5.03;;;2.65;;
19965;SDS011;10144;50.874;4.762;2022-11-12T15:35:30;5.53;;;2.70;;
19965;SDS011;10144;50.874;4.762;2022-11-12T15:37:58;4.47;;;2.30;;
19965;SDS011;10144;50.874;4.762;2022-11-12T15:40:30;5.03;;;2.38;;
19965;SDS011;10144;50.874;4.762;2022-11-12T15:42:57;4.53;;;2.40;;
19965;SDS011;10144;50.874;4.762;2022-11-12T15:45:23;4.88;;;2.65;;
19965;SDS011;10144;50.874;4.762;2022-11-12T15:47:48;4.10;;;2.30;;
19965;SDS011;10144;50.874;4.762;2022-11-12T15:50:15;4.55;;;2.13;;
19965;SDS011;10144;50.874;4.762;2022-11-12T15:52:41;4.57;;;2.45;;
19965;SDS011;10144;50.874;4.762;2022-11-12T15:55:08;5.53;;;2.45;;
19965;SDS011;10144;50.874;4.762;2022-11-12T15:57:38;8.15;;;3.20;;
19965;SDS011;10144;50.874;4.762;2022-11-12T16:00:17;5.55;;;2.78;;
19965;SDS011;10144;50.874;4.762;2022-11-12T16:02:46;8.40;;;4.20;;
19965;SDS011;10144;50.874;4.762;2022-11-12T16:05:18;9.95;;;4.13;;
19965;SDS011;10144;50.874;4.762;2022-11-12T16:07:43;8.43;;;4.32;;
19965;SDS011;10144;50.874;4.762;2022-11-12T16:10:13;8.73;;;4.00;;
19965;SDS011;10144;50.874;4.762;2022-11-12T16:12:40;10.50;;;3.85;;
19965;SDS011;10144;50.874;4.762;2022-11-12T16:15:28;9.23;;;4.22;;
19965;SDS011;10144;50.874;4.762;2022-11-12T16:17:54;9.18;;;4.35;;
19965;SDS011;10144;50.874;4.762;2022-11-12T16:20:28;8.70;;;4.63;;
19965;SDS011;10144;50.874;4.762;2022-11-12T16:22:56;6.88;;;3.97;;
19965;SDS011;10144;50.874;4.762;2022-11-12T16:25:23;6.70;;;3.55;;
19965;SDS011;10144;50.874;4.762;2022-11-12T16:27:52;6.05;;;3.53;;
19965;SDS011;10144;50.874;4.762;2022-11-12T16:30:22;7.75;;;3.42;;
19965;SDS011;10144;50.874;4.762;2022-11-12T16:32:50;6.63;;;3.60;;
19965;SDS011;10144;50.874;4.762;2022-11-12T16:35:15;6.22;;;3.30;;
19965;SDS011;10144;50.874;4.762;2022-11-12T16:37:42;6.82;;;3.70;;
19965;SDS011;10144;50.874;4.762;2022-11-12T16:40:12;7.57;;;4.10;;
19965;SDS011;10144;50.874;4.762;2022-11-12T16:42:50;15.57;;;6.60;;
19965;SDS011;10144;50.874;4.762;2022-11-12T16:45:20;33.38;;;9.88;;
19965;SDS011;10144;50.874;4.762;2022-11-12T16:47:52;12.80;;;5.40;;
19965;SDS011;10144;50.874;4.762;2022-11-12T16:50:20;12.93;;;5.32;;
19965;SDS011;10144;50.874;4.762;2022-11-12T16:52:47;9.10;;;4.53;;
19965;SDS011;10144;50.874;4.762;2022-11-12T16:55:13;9.18;;;4.03;;
19965;SDS011;10144;50.874;4.762;2022-11-12T16:57:40;6.82;;;3.95;;
19965;SDS011;10144;50.874;4.762;2022-11-12T17:00:11;7.25;;;3.63;;
19965;SDS011;10144;50.874;4.762;2022-11-12T17:02:38;5.82;;;3.45;;
19965;SDS011;10144;50.874;4.762;2022-11-12T17:05:04;8.15;;;4.07;;
19965;SDS011;10144;50.874;4.762;2022-11-12T17:07:32;9.45;;;4.32;;
19965;SDS011;10144;50.874;4.762;2022-11-12T17:09:58;8.32;;;3.78;;
19965;SDS011;10144;50.874;4.762;2022-11-12T17:12:23;7.93;;;3.80;;
19965;SDS011;10144;50.874;4.762;2022-11-12T17:14:49;5.70;;;3.95;;
19965;SDS011;10144;50.874;4.762;2022-11-12T17:17:15;8.02;;;3.80;;
19965;SDS011;10144;50.874;4.762;2022-11-12T17:19:40;9.38;;;4.10;;
19965;SDS011;10144;50.874;4.762;2022-11-12T17:22:06;7.07;;;4.05;;
19965;SDS011;10144;50.874;4.762;2022-11-12T17:24:32;6.75;;;4.25;;
19965;SDS011;10144;50.874;4.762;2022-11-12T17:26:57;9.68;;;4.30;;
19965;SDS011;10144;50.874;4.762;2022-11-12T17:29:24;7.43;;;4.28;;
19965;SDS011;10144;50.874;4.762;2022-11-12T17:31:50;7.28;;;4.13;;
19965;SDS011;10144;50.874;4.762;2022-11-12T17:34:16;8.20;;;4.13;;
19965;SDS011;10144;50.874;4.762;2022-11-12T17:36:42;7.07;;;4.10;;
19965;SDS011;10144;50.874;4.762;2022-11-12T17:39:08;6.68;;;3.53;;
19965;SDS011;10144;50.874;4.762;2022-11-12T17:41:35;12.23;;;3.85;;
19965;SDS011;10144;50.874;4.762;2022-11-12T17:44:01;6.72;;;3.45;;
19965;SDS011;10144;50.874;4.762;2022-11-12T17:46:28;8.77;;;4.10;;
19965;SDS011;10144;50.874;4.762;2022-11-12T17:48:54;8.82;;;5.18;;
19965;SDS011;10144;50.874;4.762;2022-11-12T17:51:21;7.22;;;4.50;;
19965;SDS011;10144;50.874;4.762;2022-11-12T17:53:49;9.43;;;4.35;;
19965;SDS011;10144;50.874;4.762;2022-11-12T17:56:16;12.77;;;4.88;;
19965;SDS011;10144;50.874;4.762;2022-11-12T17:58:47;16.25;;;7.88;;